Time;durP1;ratioP1;P1;durP2;ratioP2;P2;SDS_P1;SDS_P2;PMS_P1;PMS_P2;Temp;Humidity;BMP_temperature;BMP_pressure;BME280_temperature;BME280_humidity;BME280_pressure;Samples;Min_cycle;Max_cycle;Signal;HPM_P1;HPM_P2
2021/07/10 00:02:20;;;;;;;1.50;1.40;;;;;;;13.90;100.00;100891.41;5042465;28;20799;-74
2021/07/10 00:04:47;;;;;;;1.70;1.47;;;;;;;13.94;100.00;100890.38;5043588;28;20317;-73
2021/07/10 00:07:13;;;;;;;1.60;1.50;;;;;;;13.87;100.00;100888.06;5039171;28;20671;-73
2021/07/10 00:09:41;;;;;;;2.23;1.50;;;;;;;13.86;100.00;100897.69;5046729;28;20298;-73
2021/07/10 00:12:07;;;;;;;1.70;1.60;;;;;;;13.84;100.00;100907.34;5046521;28;20206;-73
2021/07/10 00:14:34;;;;;;;3.30;1.67;;;;;;;13.83;100.00;100906.50;5046956;28;20236;-73
2021/07/10 00:17:00;;;;;;;2.27;1.63;;;;;;;13.83;100.00;100903.88;5041056;28;20233;-73
2021/07/10 00:19:27;;;;;;;1.53;1.43;;;;;;;13.80;100.00;100898.72;5045229;28;20208;-73
2021/07/10 00:21:54;;;;;;;5.10;1.47;;;;;;;13.85;100.00;100902.97;5037776;28;20203;-73
2021/07/10 00:24:20;;;;;;;1.50;1.40;;;;;;;13.84;100.00;100915.22;5047587;28;20234;-73
2021/07/10 00:26:48;;;;;;;2.80;1.67;;;;;;;13.81;100.00;100916.19;5045365;28;20200;-71
2021/07/10 00:29:16;;;;;;;2.77;1.60;;;;;;;13.86;100.00;100909.91;5046713;28;20314;-71
2021/07/10 00:31:42;;;;;;;1.73;1.63;;;;;;;13.85;100.00;100911.69;5045603;28;20224;-71
2021/07/10 00:34:09;;;;;;;1.73;1.63;;;;;;;13.86;100.00;100912.53;5042981;28;20649;-72
2021/07/10 00:36:35;;;;;;;1.80;1.70;;;;;;;13.85;100.00;100916.09;5043252;28;20225;-72
2021/07/10 00:39:02;;;;;;;2.87;1.90;;;;;;;13.80;100.00;100917.06;5050119;28;20287;-71
2021/07/10 00:41:28;;;;;;;1.80;1.70;;;;;;;13.81;100.00;100910.09;5046285;28;20546;-71
2021/07/10 00:43:56;;;;;;;2.00;1.80;;;;;;;13.85;100.00;100914.31;5042132;28;20227;-71
2021/07/10 00:46:23;;;;;;;1.90;1.80;;;;;;;13.87;100.00;100916.88;5049402;28;20663;-71
2021/07/10 00:48:50;;;;;;;2.93;2.17;;;;;;;13.88;100.00;100922.06;5048551;28;20704;-71
2021/07/10 00:51:19;;;;;;;2.07;1.93;;;;;;;13.88;100.00;100924.69;5049341;28;20309;-71
2021/07/10 00:53:46;;;;;;;2.60;1.90;;;;;;;13.85;100.00;100918.72;5046733;28;20302;-71
2021/07/10 00:56:12;;;;;;;2.20;2.07;;;;;;;13.82;100.00;100923.16;5047456;28;20502;-71
2021/07/10 00:58:39;;;;;;;2.40;1.90;;;;;;;13.82;100.00;100931.00;5050396;28;20299;-71
2021/07/10 01:01:07;;;;;;;1.90;1.80;;;;;;;13.79;100.00;100933.72;5047629;28;20204;-71
2021/07/10 01:03:39;;;;;;;2.53;1.87;;;;;;;13.81;100.00;100920.56;5046652;28;20305;-71
2021/07/10 01:06:06;;;;;;;1.97;1.87;;;;;;;13.74;100.00;100922.53;5043536;28;20196;-71
2021/07/10 01:08:34;;;;;;;3.33;1.90;;;;;;;13.74;100.00;100912.06;5048881;28;20272;-72
2021/07/10 01:11:00;;;;;;;2.63;2.10;;;;;;;13.68;100.00;100920.13;5047515;28;20294;-71
2021/07/10 01:13:26;;;;;;;3.03;1.83;;;;;;;13.66;100.00;100924.56;5046609;28;20206;-71
2021/07/10 01:15:53;;;;;;;3.17;2.20;;;;;;;13.66;100.00;100929.81;5053750;28;20199;-71
2021/07/10 01:18:21;;;;;;;2.47;2.27;;;;;;;13.64;100.00;100923.78;5048625;28;20202;-71
2021/07/10 01:20:49;;;;;;;2.33;2.00;;;;;;;13.64;100.00;100924.63;5041390;28;20292;-71
2021/07/10 01:23:16;;;;;;;2.10;1.90;;;;;;;13.61;100.00;100921.25;5049439;28;20191;-71
2021/07/10 01:25:43;;;;;;;2.50;2.27;;;;;;;13.59;100.00;100920.44;5050015;28;20623;-71
2021/07/10 01:28:10;;;;;;;2.30;2.10;;;;;;;13.59;100.00;100909.97;5046211;28;20223;-71
2021/07/10 01:30:38;;;;;;;5.10;2.30;;;;;;;13.62;100.00;100913.34;5047312;28;20214;-71
2021/07/10 01:33:05;;;;;;;2.43;2.23;;;;;;;13.62;100.00;100921.19;5049576;28;20337;-71
2021/07/10 01:35:32;;;;;;;2.40;2.20;;;;;;;13.61;100.00;100926.47;5041345;28;20626;-71
2021/07/10 01:38:00;;;;;;;2.50;2.10;;;;;;;13.66;100.00;100915.84;5045904;28;20207;-71
2021/07/10 01:40:27;;;;;;;2.43;2.23;;;;;;;13.66;100.00;100918.47;5047432;28;20229;-71
2021/07/10 01:42:55;;;;;;;2.87;2.67;;;;;;;13.75;100.00;100918.16;5048819;28;20747;-71
2021/07/10 01:45:22;;;;;;;3.97;2.43;;;;;;;13.70;100.00;100920.97;5045964;28;20310;-71
2021/07/10 01:47:50;;;;;;;2.77;2.20;;;;;;;13.69;100.00;100921.84;5049757;28;20226;-71
2021/07/10 01:50:16;;;;;;;2.63;2.43;;;;;;;13.69;100.00;100918.38;5047281;28;20290;-71
2021/07/10 01:52:44;;;;;;;2.73;2.53;;;;;;;13.74;100.00;100917.31;5052404;28;20556;-71
2021/07/10 01:55:14;;;;;;;2.57;2.20;;;;;;;13.70;100.00;100914.84;5044364;28;20325;-71
2021/07/10 01:57:42;;;;;;;2.40;2.20;;;;;;;13.68;100.00;100911.41;5050101;28;20199;-71
2021/07/10 02:00:10;;;;;;;4.60;2.57;;;;;;;13.72;100.00;100913.00;5047540;28;20207;-72
2021/07/10 02:02:37;;;;;;;3.97;2.30;;;;;;;13.73;100.00;100912.97;5044951;28;20203;-71
2021/07/10 02:05:05;;;;;;;2.70;2.50;;;;;;;13.73;100.00;100902.47;5044166;28;20230;-71
2021/07/10 02:07:31;;;;;;;3.60;2.40;;;;;;;13.77;100.00;100900.59;5046941;28;20998;-71
2021/07/10 02:09:58;;;;;;;3.00;2.50;;;;;;;13.75;100.00;100899.81;5047381;28;20663;-71
2021/07/10 02:12:26;;;;;;;2.40;2.20;;;;;;;13.74;100.00;100898.13;5048439;28;20233;-71
2021/07/10 02:14:52;;;;;;;2.70;2.50;;;;;;;13.70;100.00;100904.34;5047537;28;20218;-71
2021/07/10 02:17:19;;;;;;;2.87;2.57;;;;;;;13.70;100.00;100896.50;5048223;28;20199;-71
2021/07/10 02:19:45;;;;;;;2.97;2.73;;;;;;;13.71;100.00;100901.69;5044795;28;20234;-71
2021/07/10 02:22:12;;;;;;;3.00;2.80;;;;;;;13.74;100.00;100903.38;5046817;28;20198;-72
2021/07/10 02:24:38;;;;;;;3.53;3.10;;;;;;;13.77;100.00;100901.50;5047591;28;20606;-71
2021/07/10 02:27:05;;;;;;;5.17;3.30;;;;;;;13.77;100.00;100895.38;5045275;28;20205;-71
2021/07/10 02:29:33;;;;;;;4.60;3.73;;;;;;;13.80;100.00;100890.03;5038944;28;20687;-71
2021/07/10 02:31:59;;;;;;;5.13;4.30;;;;;;;13.77;100.00;100901.50;5040966;28;20203;-71
2021/07/10 02:34:26;;;;;;;5.00;4.40;;;;;;;13.83;100.00;100896.00;5046619;28;20448;-71
2021/07/10 02:36:52;;;;;;;4.80;4.30;;;;;;;13.85;100.00;100901.22;5048096;28;20206;-71
2021/07/10 02:39:18;;;;;;;5.10;4.63;;;;;;;13.90;100.00;100907.16;5046090;28;20206;-71
2021/07/10 02:41:45;;;;;;;6.47;4.90;;;;;;;13.96;100.00;100906.06;5047849;28;20214;-71
2021/07/10 02:44:12;;;;;;;5.27;4.77;;;;;;;13.96;100.00;100906.06;5045978;28;20219;-71
2021/07/10 02:46:40;;;;;;;6.37;5.40;;;;;;;13.99;100.00;100914.66;5046428;28;20615;-72
2021/07/10 02:49:07;;;;;;;6.90;5.57;;;;;;;13.97;100.00;100913.88;5047676;28;20215;-71
2021/07/10 02:51:33;;;;;;;7.70;5.77;;;;;;;13.99;100.00;100921.69;5048076;28;20210;-71
2021/07/10 02:54:00;;;;;;;6.43;5.83;;;;;;;13.99;100.00;100922.53;5048390;28;20219;-71
2021/07/10 02:56:27;;;;;;;9.87;6.20;;;;;;;14.03;100.00;100920.66;5039881;28;20206;-72
2021/07/10 02:58:53;;;;;;;7.53;6.43;;;;;;;14.02;100.00;100919.81;5037245;28;20687;-72
2021/07/10 03:01:20;;;;;;;6.83;6.13;;;;;;;14.05;100.00;100917.97;5040101;28;20200;-71
2021/07/10 03:03:48;;;;;;;7.17;6.00;;;;;;;14.10;100.00;100919.53;5045627;28;20235;-71
2021/07/10 03:06:15;;;;;;;9.20;6.30;;;;;;;14.11;100.00;100920.41;5056762;28;20199;-71
2021/07/10 03:08:42;;;;;;;7.00;5.77;;;;;;;14.15;100.00;100914.97;5046300;28;20688;-72
2021/07/10 03:11:09;;;;;;;10.63;6.77;;;;;;;14.14;100.00;100915.91;5047347;28;20195;-71
2021/07/10 03:13:36;;;;;;;9.03;6.50;;;;;;;14.11;100.00;100913.38;5040749;28;20247;-71
2021/07/10 03:16:02;;;;;;;10.20;6.87;;;;;;;14.16;100.00;100915.84;5043100;28;20211;-71
2021/07/10 03:18:29;;;;;;;8.70;6.80;;;;;;;14.14;100.00;100913.28;5047223;28;20203;-71
2021/07/10 03:20:57;;;;;;;8.00;7.00;;;;;;;14.15;100.00;100914.13;5048455;28;20191;-71
2021/07/10 03:23:23;;;;;;;8.27;6.13;;;;;;;14.19;100.00;100910.47;5045417;28;20848;-71
2021/07/10 03:25:50;;;;;;;8.53;7.10;;;;;;;14.18;100.00;100911.41;5043374;28;20691;-71
2021/07/10 03:28:16;;;;;;;8.97;6.83;;;;;;;14.19;100.00;100915.72;5041467;28;20226;-72
2021/07/10 03:30:48;;;;;;;8.67;6.87;;;;;;;14.23;100.00;100913.84;5046653;28;20207;-71
2021/07/10 03:33:14;;;;;;;9.87;6.70;;;;;;;14.23;100.00;100916.47;5048981;28;20227;-71
2021/07/10 03:35:41;;;;;;;9.37;6.67;;;;;;;14.19;100.00;100910.47;5046961;28;20223;-71
2021/07/10 03:38:09;;;;;;;7.10;6.27;;;;;;;14.23;100.00;100913.84;5046674;28;20202;-72
2021/07/10 03:40:36;;;;;;;7.67;6.17;;;;;;;14.23;100.00;100914.72;5044331;28;20211;-72
2021/07/10 03:43:04;;;;;;;7.43;6.20;;;;;;;14.23;100.00;100922.56;5047547;28;20680;-71
2021/07/10 03:45:30;;;;;;;9.17;6.00;;;;;;;14.28;100.00;100930.25;5045197;28;20235;-72
2021/07/10 03:47:57;;;;;;;9.97;6.23;;;;;;;14.30;100.00;100923.19;5046439;28;20687;-71
2021/07/10 03:50:24;;;;;;;6.60;5.80;;;;;;;14.33;100.00;100925.69;5046727;28;20595;-71
2021/07/10 03:52:50;;;;;;;6.47;5.70;;;;;;;14.32;100.00;100937.13;5041685;28;20234;-71
2021/07/10 03:55:18;;;;;;;7.07;5.20;;;;;;;14.36;100.00;100930.84;5048199;28;20237;-71
2021/07/10 03:57:45;;;;;;;6.63;6.03;;;;;;;14.41;100.00;100935.94;5047279;28;20223;-72
2021/07/10 04:00:15;;;;;;;8.10;5.80;;;;;;;14.43;100.00;100932.31;5046713;28;20195;-72
2021/07/10 04:02:41;;;;;;;6.90;5.63;;;;;;;14.43;100.00;100931.47;5044263;28;20218;-71
2021/07/10 04:05:10;;;;;;;9.53;5.60;;;;;;;14.47;100.00;100926.03;5040236;28;20219;-72
2021/07/10 04:07:37;;;;;;;6.53;5.93;;;;;;;14.49;100.00;100928.59;5037536;28;20592;-72
2021/07/10 04:10:05;;;;;;;6.23;5.60;;;;;;;14.51;100.00;100925.03;5046074;28;20216;-72
2021/07/10 04:12:33;;;;;;;6.30;5.70;;;;;;;14.52;100.00;100937.22;5047710;28;20295;-72
2021/07/10 04:15:00;;;;;;;9.63;5.50;;;;;;;14.57;100.00;100932.66;5051277;28;20695;-72
2021/07/10 04:17:28;;;;;;;6.03;5.43;;;;;;;14.57;100.00;100932.66;5048862;28;20690;-72
2021/07/10 04:19:55;;;;;;;5.90;5.30;;;;;;;14.60;100.00;100943.97;5040144;28;20196;-71
2021/07/10 04:22:22;;;;;;;5.60;5.00;;;;;;;14.62;100.00;100937.78;5047929;28;20243;-72
2021/07/10 04:24:49;;;;;;;6.93;5.00;;;;;;;14.64;100.00;100937.72;5050071;28;20223;-71
2021/07/10 04:27:16;;;;;;;6.40;4.70;;;;;;;14.64;100.00;100941.19;5048107;28;20216;-71
2021/07/10 04:29:45;;;;;;;7.90;5.10;;;;;;;14.71;100.00;100949.69;5047498;28;20223;-71
2021/07/10 04:32:12;;;;;;;6.23;5.63;;;;;;;14.76;100.00;100945.13;5050204;28;20196;-71
2021/07/10 04:34:38;;;;;;;5.60;4.97;;;;;;;14.71;100.00;100949.69;5050620;28;20217;-72
2021/07/10 04:37:05;;;;;;;8.87;5.37;;;;;;;14.81;100.00;100958.94;5049729;28;20876;-72
2021/07/10 04:39:32;;;;;;;5.90;5.40;;;;;;;14.84;100.00;100961.41;5045145;28;20200;-71
2021/07/10 04:41:59;;;;;;;5.47;4.97;;;;;;;14.85;100.00;100968.38;5046106;28;20283;-72
2021/07/10 04:44:25;;;;;;;6.03;5.10;;;;;;;14.91;100.00;100972.53;5038626;28;20222;-71
2021/07/10 04:46:53;;;;;;;5.33;4.83;;;;;;;14.96;100.00;100981.09;5048212;28;20286;-72
2021/07/10 04:49:19;;;;;;;6.33;5.03;;;;;;;15.00;100.00;100977.41;5048963;28;20237;-72
2021/07/10 04:51:46;;;;;;;6.97;4.90;;;;;;;14.96;100.00;100981.94;5045376;28;20302;-72
2021/07/10 04:54:12;;;;;;;5.30;4.80;;;;;;;15.00;100.00;100989.69;5050181;28;20231;-72
2021/07/10 04:56:38;;;;;;;6.00;5.40;;;;;;;14.98;100.00;100981.88;5056059;28;20234;-72
2021/07/10 04:59:05;;;;;;;5.70;4.80;;;;;;;15.00;100.00;100987.06;5052989;28;20683;-72
2021/07/10 05:01:31;;;;;;;8.97;5.60;;;;;;;15.06;100.00;100989.47;5044819;28;20207;-72
2021/07/10 05:04:00;;;;;;;6.23;5.50;;;;;;;15.08;100.00;100987.63;5041272;28;20240;-72
2021/07/10 05:06:26;;;;;;;6.97;4.80;;;;;;;15.09;100.00;100992.84;5049938;28;20289;-72
2021/07/10 05:08:53;;;;;;;6.53;5.50;;;;;;;15.15;100.00;100983.84;5041984;28;20238;-72
2021/07/10 05:11:19;;;;;;;6.97;5.00;;;;;;;15.15;100.00;100989.09;5047722;28;20783;-72
2021/07/10 05:13:46;;;;;;;5.37;4.73;;;;;;;15.13;100.00;100994.41;5049861;28;20234;-72
2021/07/10 05:16:12;;;;;;;8.67;5.00;;;;;;;15.14;100.00;100992.63;5056525;28;20227;-72
2021/07/10 05:18:39;;;;;;;6.57;4.93;;;;;;;15.10;100.00;100991.06;5045434;28;20205;-72
2021/07/10 05:21:06;;;;;;;7.53;5.10;;;;;;;15.12;100.00;100994.47;5037365;28;20204;-72
2021/07/10 05:23:33;;;;;;;4.97;4.57;;;;;;;15.14;100.00;100996.16;5047278;28;20192;-72
2021/07/10 05:25:59;;;;;;;9.70;5.23;;;;;;;15.19;100.00;100989.84;5041218;28;20203;-72
2021/07/10 05:28:26;;;;;;;6.03;5.03;;;;;;;15.25;100.00;100994.84;5040898;28;20202;-72
2021/07/10 05:30:52;;;;;;;7.43;5.23;;;;;;;15.31;100.00;100997.22;5044014;28;20225;-72
2021/07/10 05:33:19;;;;;;;6.80;4.93;;;;;;;15.38;100.00;101000.47;5043079;28;20203;-72
2021/07/10 05:35:46;;;;;;;6.80;5.30;;;;;;;15.44;100.00;101000.22;5047376;28;20306;-72
2021/07/10 05:38:14;;;;;;;6.10;5.20;;;;;;;15.56;100.00;100994.47;5049482;28;20194;-72
2021/07/10 05:40:40;;;;;;;5.20;4.73;;;;;;;15.60;100.00;100997.81;5042449;28;20695;-72
2021/07/10 05:43:07;;;;;;;6.50;5.07;;;;;;;15.64;100.00;101008.16;5046745;28;20214;-72
2021/07/10 05:45:33;;;;;;;6.03;5.40;;;;;;;15.70;100.00;101001.78;5049401;28;20317;-72
2021/07/10 05:47:59;;;;;;;9.37;5.80;;;;;;;15.80;100.00;101002.28;5049189;28;20199;-72
2021/07/10 05:50:26;;;;;;;6.57;5.70;;;;;;;15.90;100.00;101009.72;5049221;28;20219;-72
2021/07/10 05:52:53;;;;;;;6.50;5.67;;;;;;;16.09;100.00;101007.19;5051286;28;20217;-72
2021/07/10 05:55:21;;;;;;;7.10;5.87;;;;;;;16.31;100.00;101000.97;5049166;28;20230;-72
2021/07/10 05:57:47;;;;;;;7.47;5.87;;;;;;;16.59;100.00;101003.22;5048714;28;20210;-72
2021/07/10 06:00:14;;;;;;;6.27;5.50;;;;;;;16.87;100.00;101017.78;5045089;28;20191;-72
2021/07/10 06:02:41;;;;;;;8.23;5.10;;;;;;;17.13;100.00;101018.34;5047012;28;20210;-72
2021/07/10 06:05:10;;;;;;;6.43;5.10;;;;;;;17.18;100.00;101014.59;5044255;28;20318;-72
2021/07/10 06:07:38;;;;;;;6.67;4.63;;;;;;;17.33;100.00;101022.69;5045753;28;20200;-72
2021/07/10 06:10:07;;;;;;;6.10;4.87;;;;;;;17.45;100.00;101022.09;5046521;28;20573;-72
2021/07/10 06:12:35;;;;;;;6.17;5.00;;;;;;;17.50;100.00;101025.34;5048067;28;20298;-72
2021/07/10 06:15:01;;;;;;;6.27;5.00;;;;;;;17.45;98.65;101021.22;5048900;28;20317;-72
2021/07/10 06:17:27;;;;;;;5.33;4.57;;;;;;;17.52;100.00;101015.56;5048833;28;20858;-72
2021/07/10 06:19:54;;;;;;;6.37;4.40;;;;;;;17.64;100.00;101021.16;5042379;28;20208;-72
2021/07/10 06:22:21;;;;;;;5.60;4.47;;;;;;;17.58;99.30;101024.97;5049790;28;20199;-72
2021/07/10 06:24:47;;;;;;;6.80;4.90;;;;;;;17.50;99.15;101024.47;5046082;28;20252;-72
2021/07/10 06:27:14;;;;;;;5.90;5.30;;;;;;;17.47;97.69;101024.66;5048192;28;20602;-72
2021/07/10 06:29:43;;;;;;;5.43;4.87;;;;;;;17.46;97.64;101028.19;5047494;28;20945;-72
2021/07/10 06:32:11;;;;;;;8.07;6.00;;;;;;;17.33;96.99;101022.69;5048741;28;20203;-72
2021/07/10 06:34:38;;;;;;;7.20;6.10;;;;;;;17.35;97.40;101026.09;5052095;28;20898;-72
2021/07/10 06:37:04;;;;;;;7.80;6.13;;;;;;;17.55;99.88;101027.75;5041652;28;20195;-72
2021/07/10 06:39:31;;;;;;;6.60;5.27;;;;;;;17.57;97.98;101032.03;5048987;28;20230;-72
2021/07/10 06:41:57;;;;;;;6.53;5.83;;;;;;;17.65;96.66;101030.78;5047601;28;20191;-72
2021/07/10 06:44:24;;;;;;;9.00;5.80;;;;;;;17.82;96.99;101032.56;5046747;28;20687;-72
2021/07/10 06:46:52;;;;;;;8.03;5.90;;;;;;;18.10;97.22;101032.06;5045067;28;20233;-72
2021/07/10 06:49:18;;;;;;;7.90;5.70;;;;;;;18.22;96.17;101027.94;5042738;28;20701;-72
2021/07/10 06:51:44;;;;;;;7.53;6.00;;;;;;;18.38;95.27;101035.91;5043508;28;20202;-72
2021/07/10 06:54:11;;;;;;;6.77;5.63;;;;;;;18.38;92.68;101039.44;5049850;28;20582;-72
2021/07/10 06:56:37;;;;;;;7.30;6.30;;;;;;;18.29;92.46;101046.03;5046915;28;20199;-72
2021/07/10 06:59:04;;;;;;;6.43;5.70;;;;;;;18.16;92.09;101043.16;5041615;28;20211;-72
2021/07/10 07:01:30;;;;;;;9.13;6.23;;;;;;;18.23;93.29;101043.72;5045353;28;20222;-72
2021/07/10 07:03:58;;;;;;;6.63;5.47;;;;;;;18.29;93.31;101040.78;5041086;28;20231;-72
2021/07/10 07:06:25;;;;;;;6.03;5.43;;;;;;;18.20;92.23;101041.22;5046918;28;20206;-72
2021/07/10 07:08:51;;;;;;;7.40;5.73;;;;;;;18.17;92.10;101044.03;5045057;28;20251;-72
2021/07/10 07:11:18;;;;;;;6.43;5.80;;;;;;;18.21;90.45;101044.72;5046134;28;20727;-72
2021/07/10 07:13:44;;;;;;;8.20;5.00;;;;;;;18.27;91.08;101049.69;5042682;28;20307;-72
2021/07/10 07:16:11;;;;;;;7.83;5.57;;;;;;;18.30;91.73;101045.09;5044902;28;20202;-72
2021/07/10 07:18:37;;;;;;;6.47;4.60;;;;;;;18.20;91.04;101043.00;5049093;28;20203;-72
2021/07/10 07:21:05;;;;;;;7.40;5.73;;;;;;;18.25;91.33;101055.03;5044314;28;20195;-72
2021/07/10 07:23:32;;;;;;;6.73;5.33;;;;;;;18.38;91.64;101055.28;5039209;28;20230;-72
2021/07/10 07:25:58;;;;;;;7.03;5.27;;;;;;;18.46;91.88;101046.94;5047725;28;20695;-72
2021/07/10 07:28:25;;;;;;;5.60;5.10;;;;;;;18.53;92.15;101053.59;5043026;28;20219;-72
2021/07/10 07:30:51;;;;;;;6.67;5.03;;;;;;;18.52;90.23;101055.41;5045811;28;20222;-72
2021/07/10 07:33:18;;;;;;;7.43;5.10;;;;;;;18.62;91.08;101045.19;5045479;28;20824;-72
2021/07/10 07:35:44;;;;;;;6.17;5.03;;;;;;;18.71;90.80;101047.34;5039937;28;20637;-72
2021/07/10 07:38:12;;;;;;;5.93;5.33;;;;;;;18.68;86.71;101052.81;5044119;28;20227;-72
2021/07/10 07:40:39;;;;;;;5.87;5.23;;;;;;;18.87;87.82;101050.06;5046817;28;20203;-72
2021/07/10 07:43:06;;;;;;;6.23;5.63;;;;;;;19.04;85.38;101061.50;5044461;28;20294;-72
2021/07/10 07:45:32;;;;;;;7.27;5.40;;;;;;;19.07;85.61;101048.13;5046139;28;20222;-72
2021/07/10 07:47:58;;;;;;;6.73;5.10;;;;;;;19.19;85.96;101052.72;5049782;28;20213;-72
2021/07/10 07:50:25;;;;;;;5.47;4.97;;;;;;;19.33;86.99;101049.31;5052246;28;20229;-72
2021/07/10 07:52:51;;;;;;;5.47;4.77;;;;;;;19.38;85.81;101052.53;5043348;28;20240;-72
2021/07/10 07:55:19;;;;;;;6.47;5.50;;;;;;;19.40;86.21;101055.09;5044625;28;20219;-72
2021/07/10 07:57:45;;;;;;;6.33;5.20;;;;;;;19.54;84.50;101062.25;5046442;28;20600;-72
2021/07/10 08:00:16;;;;;;;8.23;5.93;;;;;;;19.65;81.99;101059.84;5050295;28;20267;-72
2021/07/10 08:02:42;;;;;;;7.20;5.47;;;;;;;19.76;83.49;101060.09;5050105;28;20268;-72
2021/07/10 08:05:10;;;;;;;6.00;4.90;;;;;;;19.86;84.30;101057.78;5053022;28;20210;-73
2021/07/10 08:07:36;;;;;;;7.43;5.30;;;;;;;19.71;81.10;101053.34;5055921;28;20274;-73
2021/07/10 08:10:04;;;;;;;6.80;4.83;;;;;;;19.80;84.13;101045.75;5058982;28;20233;-73
2021/07/10 08:12:32;;;;;;;6.63;4.97;;;;;;;20.21;80.87;101060.13;5057605;28;20272;-74
2021/07/10 08:14:59;;;;;;;6.23;4.87;;;;;;;20.35;81.54;101052.22;5058614;28;20223;-72
2021/07/10 08:17:25;;;;;;;5.43;4.93;;;;;;;20.39;82.23;101055.53;5059210;28;20218;-73
2021/07/10 08:19:51;;;;;;;5.60;5.00;;;;;;;20.51;77.02;101073.34;5061086;28;20206;-73
2021/07/10 08:22:18;;;;;;;5.10;4.37;;;;;;;20.55;77.80;101068.69;5050956;28;20288;-74
2021/07/10 08:24:44;;;;;;;5.33;4.70;;;;;;;20.50;79.18;101071.63;5055848;28;20223;-74
2021/07/10 08:27:11;;;;;;;5.03;4.53;;;;;;;20.38;79.19;101077.66;5054493;28;20271;-74
2021/07/10 08:29:40;;;;;;;6.43;4.67;;;;;;;20.47;80.65;101070.97;5054650;28;20270;-73
2021/07/10 08:32:08;;;;;;;6.10;5.10;;;;;;;20.27;76.50;101088.91;5055102;28;20265;-73
2021/07/10 08:34:34;;;;;;;6.30;4.80;;;;;;;20.16;77.08;101072.81;5055664;28;20238;-74
2021/07/10 08:37:02;;;;;;;4.60;4.17;;;;;;;20.42;78.62;101080.03;5055833;28;20245;-72
2021/07/10 08:39:28;;;;;;;8.63;4.70;;;;;;;20.41;76.87;101074.84;5055787;28;20572;-74
2021/07/10 08:41:56;;;;;;;5.43;4.60;;;;;;;20.51;76.55;101075.97;5055745;28;20280;-73
2021/07/10 08:44:22;;;;;;;5.27;4.77;;;;;;;20.33;75.30;101085.03;5056640;28;20226;-71
2021/07/10 08:46:52;;;;;;;5.93;5.03;;;;;;;20.21;77.50;101084.81;5054811;28;20294;-73
2021/07/10 08:49:18;;;;;;;4.90;4.40;;;;;;;20.12;77.62;101080.09;5053604;28;20208;-74
2021/07/10 08:51:47;;;;;;;5.70;4.50;;;;;;;20.12;79.92;101074.78;5051233;28;20227;-71
2021/07/10 08:54:14;;;;;;;4.93;4.27;;;;;;;20.21;80.81;101068.94;5050253;28;20350;-73
2021/07/10 08:56:41;;;;;;;4.97;4.40;;;;;;;20.51;76.39;101083.06;5049278;28;20241;-72
2021/07/10 08:59:08;;;;;;;5.90;4.50;;;;;;;20.56;76.10;101079.22;5052563;28;20200;-74
2021/07/10 09:01:35;;;;;;;6.10;5.03;;;;;;;20.31;74.93;101089.56;5055808;28;20238;-75
2021/07/10 09:04:02;;;;;;;5.67;4.30;;;;;;;20.20;74.21;101088.41;5050104;28;20758;-73
2021/07/10 09:06:29;;;;;;;5.77;4.87;;;;;;;20.00;76.11;101088.75;5048813;28;20207;-74
2021/07/10 09:08:56;;;;;;;5.20;4.53;;;;;;;20.00;76.36;101083.44;5051034;28;20782;-73
2021/07/10 09:11:23;;;;;;;4.93;4.40;;;;;;;20.08;76.87;101078.53;5050667;28;20253;-73
2021/07/10 09:13:51;;;;;;;5.10;4.20;;;;;;;20.05;77.10;101078.72;5050327;28;20241;-74
2021/07/10 09:16:23;;;;;;;5.30;4.80;;;;;;;20.52;79.93;101075.03;5051236;28;20281;-73
2021/07/10 09:18:52;;;;;;;5.63;4.70;;;;;;;20.76;74.71;101082.47;5049844;28;20210;-75
2021/07/10 09:24:14;;;;;;;5.00;4.50;;;;;;;21.03;72.74;101079.03;5083033;27;20599;-73
2021/07/10 09:26:44;;;;;;;5.03;4.30;;;;;;;21.05;70.65;101087.72;5068491;28;20205;-74
2021/07/10 09:29:13;;;;;;;5.70;4.70;;;;;;;21.27;72.77;101082.78;5069399;28;20198;-72
2021/07/10 09:31:42;;;;;;;5.57;4.57;;;;;;;21.60;72.40;101072.75;5063802;28;20199;-73
2021/07/10 09:34:12;;;;;;;4.90;4.23;;;;;;;21.67;68.09;101085.53;5068352;28;20220;-72
2021/07/10 09:36:50;;;;;;;6.47;4.67;;;;;;;21.55;67.64;101081.88;5060445;28;20294;-73
2021/07/10 09:39:18;;;;;;;4.83;4.33;;;;;;;21.80;68.37;101090.88;5066001;28;20302;-73
2021/07/10 09:41:45;;;;;;;4.80;4.17;;;;;;;21.72;64.89;101093.19;5064024;28;20248;-71
2021/07/10 09:44:14;;;;;;;5.45;3.83;;;;;;;21.79;67.64;101078.56;5062998;28;20228;-72
2021/07/10 09:46:41;;;;;;;4.90;4.40;;;;;;;21.94;64.21;101098.78;5066317;28;20462;-74
2021/07/10 09:49:26;;;;;;;4.03;3.72;;;;;;;21.90;67.12;101086.66;5058783;28;20238;-72
2021/07/10 09:52:04;;;;;;;5.20;4.03;;;;;;;22.00;65.01;101094.00;5061125;28;20617;-74
2021/07/10 09:54:34;;;;;;;5.55;4.32;;;;;;;22.19;65.18;101089.16;5061099;28;20317;-72
2021/07/10 09:57:04;;;;;;;4.50;3.90;;;;;;;22.16;63.22;101101.78;5067516;28;20224;-74
2021/07/10 09:59:31;;;;;;;5.32;4.00;;;;;;;21.67;62.68;101093.50;5059263;28;20602;-73
2021/07/10 10:01:57;;;;;;;4.90;3.65;;;;;;;21.89;65.65;101089.44;5062002;28;20199;-72
2021/07/10 10:04:26;;;;;;;4.70;4.10;;;;;;;22.24;64.65;101086.22;5060535;28;20222;-73
2021/07/10 10:06:55;;;;;;;4.72;4.20;;;;;;;22.75;67.61;101078.28;5066991;28;20207;-73
2021/07/10 10:09:23;;;;;;;4.95;4.03;;;;;;;23.02;65.84;101085.25;5060461;28;20195;-73
2021/07/10 10:11:54;;;;;;;4.22;3.72;;;;;;;23.11;64.18;101086.44;5064775;28;20203;-73
2021/07/10 10:14:21;;;;;;;3.92;3.47;;;;;;;22.81;63.51;101092.94;5058042;28;20302;-74
2021/07/10 10:16:49;;;;;;;4.47;4.07;;;;;;;22.84;62.17;101093.56;5062336;28;20195;-76
2021/07/10 10:19:16;;;;;;;5.53;3.53;;;;;;;22.77;62.07;101079.00;5065281;28;20191;-75
2021/07/10 10:21:44;;;;;;;3.97;3.50;;;;;;;22.65;61.59;101087.84;5061485;28;20210;-76
2021/07/10 10:24:11;;;;;;;5.45;3.83;;;;;;;22.29;63.07;101089.44;5059037;28;20246;-74
2021/07/10 10:26:38;;;;;;;5.10;3.42;;;;;;;22.12;62.78;101085.22;5063250;28;20190;-74
2021/07/10 10:29:07;;;;;;;5.70;3.85;;;;;;;21.87;62.38;101081.56;5071623;28;20248;-75
2021/07/10 10:31:34;;;;;;;3.90;3.60;;;;;;;21.84;65.16;101078.25;5068300;28;20213;-74
2021/07/10 10:34:01;;;;;;;5.00;3.97;;;;;;;21.93;64.19;101072.31;5067331;28;20286;-76
2021/07/10 10:36:28;;;;;;;5.72;3.67;;;;;;;22.26;63.60;101071.00;5054888;28;20275;-76
2021/07/10 10:38:55;;;;;;;6.20;3.58;;;;;;;22.51;64.22;101070.19;5056488;28;20743;-75
2021/07/10 10:41:22;;;;;;;4.95;3.60;;;;;;;22.79;62.26;101069.09;5050603;28;20199;-76
2021/07/10 10:43:49;;;;;;;5.10;3.33;;;;;;;23.21;64.37;101068.84;5057578;28;20712;-76
2021/07/10 10:46:23;;;;;;;5.22;3.78;;;;;;;23.28;61.82;101070.09;5050225;28;20530;-75
2021/07/10 10:48:50;;;;;;;4.38;3.65;;;;;;;23.59;63.79;101062.53;5038279;28;20575;-74
2021/07/10 10:51:25;;;;;;;4.13;3.65;;;;;;;23.76;60.58;101067.47;5049278;28;20564;-72
2021/07/10 10:53:52;;;;;;;3.40;3.10;;;;;;;23.57;60.79;101061.78;5053981;28;20225;-74
2021/07/10 10:56:36;;;;;;;3.45;3.00;;;;;;;23.49;61.10;101058.84;5057199;28;20195;-74
2021/07/10 10:59:33;;;;;;;3.40;3.10;;;;;;;23.29;59.26;101062.97;5042964;28;20230;-73
2021/07/10 11:02:01;;;;;;;4.18;3.20;;;;;;;23.01;61.70;101059.63;5051184;28;23831;-73
2021/07/10 11:04:58;;;;;;;3.50;3.20;;;;;;;22.82;59.60;101058.28;5051733;28;20229;-72
2021/07/10 11:07:24;;;;;;;3.15;2.85;;;;;;;22.76;61.10;101052.53;5031584;28;20695;-74
2021/07/10 11:10:11;;;;;;;3.35;3.05;;;;;;;22.56;61.18;101051.28;5057481;28;20191;-73
2021/07/10 11:12:54;;;;;;;3.42;3.13;;;;;;;22.83;62.38;101048.47;5048806;28;20290;-73
2021/07/10 11:15:43;;;;;;;3.67;3.20;;;;;;;23.39;60.15;101045.38;5053128;28;20223;-74
2021/07/10 11:18:28;;;;;;;5.03;3.28;;;;;;;23.78;59.86;101051.34;5054256;28;20203;-72
2021/07/10 11:20:55;;;;;;;3.47;3.17;;;;;;;23.91;59.67;101052.16;5047249;28;20665;-76
2021/07/10 11:23:28;;;;;;;3.10;2.90;;;;;;;23.60;59.34;101056.25;5047516;28;20219;-75
2021/07/10 11:26:00;;;;;;;5.53;3.10;;;;;;;23.44;60.10;101051.19;5044659;28;20204;-75
2021/07/10 11:28:28;;;;;;;3.50;3.20;;;;;;;23.85;57.97;101042.00;5044006;28;20196;-75